createdAt,value
2023-01-08T00:00:05.935Z,99958.63
2023-01-08T00:02:32.616Z,99965.41
2023-01-08T00:04:59.125Z,99962.97
2023-01-08T00:07:25.655Z,99967.16
2023-01-08T00:09:52.266Z,99961.94
2023-01-08T00:12:19.395Z,99960.34
2023-01-08T00:14:45.915Z,99954.44
2023-01-08T00:17:12.477Z,99961.28
2023-01-08T00:19:41.901Z,99954.53
2023-01-08T00:22:08.463Z,99953.06
2023-01-08T00:24:34.957Z,99954.75
2023-01-08T00:27:01.524Z,99943.09
2023-01-08T00:29:28.103Z,99950.84
2023-01-08T00:31:54.614Z,99944.13
2023-01-08T00:34:21.123Z,99939.16
2023-01-08T00:36:47.640Z,99937.41
2023-01-08T00:39:14.104Z,99924.78
2023-01-08T00:41:44.171Z,99933.22
2023-01-08T00:44:10.893Z,99906.03
2023-01-08T00:46:37.607Z,99909.50
2023-01-08T00:49:04.465Z,99927.94
2023-01-08T00:51:31.131Z,99926.88
2023-01-08T00:53:57.827Z,99931.16
2023-01-08T00:56:24.528Z,99931.06
2023-01-08T00:58:51.240Z,99920.88
2023-01-08T01:01:18.152Z,99909.94
2023-01-08T01:03:45.194Z,99911.50
2023-01-08T01:06:13.625Z,99903.06
2023-01-08T01:08:41.174Z,99918.31
2023-01-08T01:11:18.266Z,99915.78
2023-01-08T01:13:45.038Z,99909.94
2023-01-08T01:16:11.756Z,99914.03
2023-01-08T01:18:38.450Z,99915.78
2023-01-08T01:21:21.210Z,99914.16
2023-01-08T01:23:47.980Z,99909.19
2023-01-08T01:26:19.481Z,99914.34
2023-01-08T01:28:50.959Z,99911.84
2023-01-08T01:31:18.619Z,99912.75
2023-01-08T01:33:46.208Z,99902.66
2023-01-08T01:36:14.544Z,99900.97
2023-01-08T01:38:45.134Z,99895.94
2023-01-08T01:41:32.944Z,99894.34
2023-01-08T01:44:20.836Z,99892.81
2023-01-08T01:46:49.772Z,99887.75
2023-01-08T01:49:22.151Z,99887.81
2023-01-08T01:51:53.240Z,99896.34
2023-01-08T01:54:20.755Z,99885.22
2023-01-08T01:56:47.890Z,99891.28
2023-01-08T01:59:15.129Z,99883.72
2023-01-08T02:01:42.817Z,99889.63
2023-01-08T02:04:14.172Z,99895.56
2023-01-08T02:06:54.734Z,99888.91
2023-01-08T02:09:41.915Z,99894.84
2023-01-08T02:12:18.981Z,99894.84
2023-01-08T02:15:01.375Z,99890.66
2023-01-08T02:17:42.757Z,99888.97
2023-01-08T02:20:14.674Z,99891.41
2023-01-08T02:22:56.349Z,99885.66
2023-01-08T02:25:30.604Z,99884.03
2023-01-08T02:28:01.764Z,99865.59
2023-01-08T02:30:28.945Z,99863.91
2023-01-08T02:32:55.671Z,99838.56
2023-01-08T02:35:22.446Z,99841.38
2023-01-08T02:37:49.336Z,99844.00
2023-01-08T02:40:29.549Z,99839.78
2023-01-08T02:43:08.565Z,99846.50
2023-01-08T02:45:48.295Z,99847.28
2023-01-08T02:48:23.121Z,99857.34
2023-01-08T02:51:00.678Z,99864.13
2023-01-08T02:53:40.179Z,99861.56
2023-01-08T02:56:12.200Z,99868.25
2023-01-08T02:58:40.717Z,99859.69
2023-01-08T03:01:10.621Z,99858.09
2023-01-08T03:03:40.493Z,99864.94
2023-01-08T03:06:17.953Z,99861.47
2023-01-08T03:08:47.832Z,99853.97
2023-01-08T03:11:17.280Z,99854.81
2023-01-08T03:13:47.614Z,99849.03
2023-01-08T03:16:46.612Z,99860.81
2023-01-08T03:19:22.870Z,99865.88
2023-01-08T03:21:52.211Z,99865.88
2023-01-08T03:24:23.647Z,99859.16
2023-01-08T03:26:53.530Z,99848.19
2023-01-08T03:29:24.430Z,99843.13
2023-01-08T03:31:56.409Z,99852.44
2023-01-08T03:34:26.697Z,99846.59
2023-01-08T03:36:58.428Z,99855.09
2023-01-08T03:39:32.902Z,99850.09
2023-01-08T03:42:06.414Z,99843.34
2023-01-08T03:44:33.290Z,99845.03
2023-01-08T03:46:59.999Z,99852.78
2023-01-08T03:49:29.046Z,99851.91
2023-01-08T03:51:56.204Z,99860.50
2023-01-08T03:54:29.455Z,99865.63
2023-01-08T03:56:56.188Z,99862.28
2023-01-08T03:59:23.160Z,99853.91
2023-01-08T04:01:50.279Z,99859.03
2023-01-08T04:04:17.821Z,99843.94
2023-01-08T04:06:44.576Z,99838.16
2023-01-08T04:09:11.243Z,99839.88
2023-01-08T04:11:37.952Z,99839.16
2023-01-08T04:14:04.664Z,99838.34
2023-01-08T04:16:31.690Z,99840.09
2023-01-08T04:18:58.404Z,99837.59
2023-01-08T04:21:25.168Z,99830.03
2023-01-08T04:23:51.856Z,99837.75
2023-01-08T04:26:18.521Z,99828.50
2023-01-08T04:28:45.502Z,99823.38
2023-01-08T04:31:12.321Z,99820.91
2023-01-08T04:33:39.147Z,99828.63
2023-01-08T04:36:06.059Z,99815.06
2023-01-08T04:38:32.848Z,99807.47
2023-01-08T04:41:01.171Z,99806.72
2023-01-08T04:43:29.027Z,99808.47
2023-01-08T04:46:02.579Z,99803.41
2023-01-08T04:48:30.740Z,99788.25
2023-01-08T04:51:01.410Z,99783.19
2023-01-08T04:53:28.810Z,99779.81
2023-01-08T04:55:55.703Z,99778.06
2023-01-08T04:58:22.710Z,99773.00
2023-01-08T05:00:49.438Z,99765.31
2023-01-08T05:03:16.512Z,99773.63
2023-01-08T05:05:43.214Z,99771.03
2023-01-08T05:08:09.922Z,99758.19
2023-01-08T05:10:36.617Z,99759.69
2023-01-08T05:13:03.409Z,99771.50
2023-01-08T05:15:30.178Z,99769.72
2023-01-08T05:18:01.571Z,99770.44
2023-01-08T05:20:28.719Z,99774.66
2023-01-08T05:22:56.292Z,99772.03
2023-01-08T05:25:23.016Z,99768.56
2023-01-08T05:27:49.902Z,99766.88
2023-01-08T05:30:16.795Z,99767.53
2023-01-08T05:32:43.334Z,99774.28
2023-01-08T05:35:09.844Z,99776.81
2023-01-08T05:37:37.538Z,99775.88
2023-01-08T05:40:05.741Z,99778.38
2023-01-08T05:42:35.243Z,99783.34
2023-01-08T05:45:06.069Z,99774.03
2023-01-08T05:47:33.128Z,99768.97
2023-01-08T05:49:59.697Z,99768.91
2023-01-08T05:52:26.541Z,99762.06
2023-01-08T05:54:53.108Z,99757.81
2023-01-08T05:57:19.706Z,99760.25
2023-01-08T05:59:46.199Z,99765.38
2023-01-08T06:02:13.720Z,99764.44
2023-01-08T06:04:40.305Z,99755.94
2023-01-08T06:07:07.711Z,99753.38
2023-01-08T06:09:34.270Z,99749.94
2023-01-08T06:12:00.747Z,99750.75
2023-01-08T06:14:27.296Z,99748.25
2023-01-08T06:16:53.877Z,99753.16
2023-01-08T06:19:20.781Z,99761.69
2023-01-08T06:21:47.312Z,99754.88
2023-01-08T06:24:13.875Z,99749.84
2023-01-08T06:26:40.379Z,99754.88
2023-01-08T06:29:06.978Z,99746.44
2023-01-08T06:31:33.761Z,99743.72
2023-01-08T06:34:00.299Z,99750.66
2023-01-08T06:36:26.789Z,99749.84
2023-01-08T06:38:53.401Z,99741.31
2023-01-08T06:41:19.948Z,99744.78
2023-01-08T06:43:46.447Z,99746.53
2023-01-08T06:46:13.254Z,99739.84
2023-01-08T06:48:39.818Z,99736.63
2023-01-08T06:51:06.661Z,99736.63
2023-01-08T06:53:33.863Z,99734.13
2023-01-08T06:56:00.381Z,99735.00
2023-01-08T06:58:27.899Z,99746.78
2023-01-08T07:00:54.714Z,99738.34
2023-01-08T07:03:21.239Z,99746.72
2023-01-08T07:05:47.765Z,99744.91
2023-01-08T07:08:15.680Z,99740.75
2023-01-08T07:10:43.247Z,99743.25
2023-01-08T07:13:10.700Z,99737.41
2023-01-08T07:15:37.531Z,99735.81
2023-01-08T07:18:09.529Z,99735.88
2023-01-08T07:20:36.426Z,99732.53
2023-01-08T07:23:07.837Z,99733.47
2023-01-08T07:25:34.322Z,99727.69
2023-01-08T07:28:01.965Z,99723.50
2023-01-08T07:30:30.463Z,99733.66
2023-01-08T07:33:00.387Z,99727.84
2023-01-08T07:35:27.319Z,99729.63
2023-01-08T07:37:54.209Z,99723.75
2023-01-08T07:40:20.942Z,99723.84
2023-01-08T07:42:47.665Z,99734.00
2023-01-08T07:45:14.413Z,99735.81
2023-01-08T07:47:41.105Z,99725.81
2023-01-08T07:50:08.597Z,99730.09
2023-01-08T07:52:36.172Z,99730.13
2023-01-08T07:55:02.946Z,99724.28
2023-01-08T07:57:29.846Z,99731.06
2023-01-08T07:59:56.576Z,99725.22
2023-01-08T08:02:23.421Z,99719.28
2023-01-08T08:04:50.277Z,99715.97
2023-01-08T08:07:16.951Z,99717.69
2023-01-08T08:09:43.634Z,99708.50
2023-01-08T08:12:10.328Z,99712.63
2023-01-08T08:14:36.995Z,99711.03
2023-01-08T08:17:03.706Z,99707.72
2023-01-08T08:19:30.498Z,99718.69
2023-01-08T08:21:57.210Z,99715.31
2023-01-08T08:24:23.951Z,99712.69
2023-01-08T08:26:51.044Z,99718.69
2023-01-08T08:29:18.102Z,99715.31
2023-01-08T08:31:45.062Z,99715.31
2023-01-08T08:34:11.763Z,99718.75
2023-01-08T08:36:38.434Z,99717.88
2023-01-08T08:39:05.172Z,99710.34
2023-01-08T08:41:32.070Z,99707.91
2023-01-08T08:43:58.753Z,99716.34
2023-01-08T08:46:26.005Z,99707.75
2023-01-08T08:48:52.814Z,99708.03
2023-01-08T08:51:19.527Z,99710.47
2023-01-08T08:53:46.299Z,99708.94
2023-01-08T08:56:12.998Z,99706.34
2023-01-08T08:58:42.433Z,99709.88
2023-01-08T09:01:09.222Z,99707.41
2023-01-08T09:03:36.027Z,99719.25
2023-01-08T09:06:02.711Z,99703.22
2023-01-08T09:08:29.448Z,99703.47
2023-01-08T09:10:57.049Z,99704.16
2023-01-08T09:13:23.725Z,99708.56
2023-01-08T09:15:50.453Z,99711.19
2023-01-08T09:18:17.147Z,99721.38
2023-01-08T09:20:43.830Z,99717.09
2023-01-08T09:23:10.660Z,99711.28
2023-01-08T09:25:37.367Z,99702.78
2023-01-08T09:28:07.260Z,99713.88
2023-01-08T09:30:34.561Z,99712.22
2023-01-08T09:33:03.215Z,99713.97
2023-01-08T09:35:31.360Z,99714.81
2023-01-08T09:37:58.839Z,99712.28
2023-01-08T09:40:37.378Z,99714.88
2023-01-08T09:43:06.136Z,99707.31
2023-01-08T09:45:39.454Z,99703.88
2023-01-08T09:48:12.188Z,99711.53
2023-01-08T09:50:39.029Z,99714.00
2023-01-08T09:53:10.436Z,99710.75
2023-01-08T09:55:37.167Z,99715.84
2023-01-08T09:58:03.858Z,99715.00
2023-01-08T10:00:33.737Z,99713.41
2023-01-08T10:03:00.498Z,99708.34
2023-01-08T10:05:28.360Z,99710.06
2023-01-08T10:07:54.928Z,99701.69
2023-01-08T10:10:29.353Z,99703.34
2023-01-08T10:12:56.245Z,99703.34
2023-01-08T10:15:23.095Z,99699.25
2023-01-08T10:18:02.511Z,99703.53
2023-01-08T10:20:30.263Z,99694.28
2023-01-08T10:23:09.341Z,99694.38
2023-01-08T10:26:07.532Z,99684.34
2023-01-08T10:28:37.998Z,99683.47
2023-01-08T10:31:16.523Z,99684.44
2023-01-08T10:33:46.143Z,99677.00
2023-01-08T10:36:17.082Z,99678.78
2023-01-08T10:38:54.953Z,99667.91
2023-01-08T10:41:21.832Z,99648.66
2023-01-08T10:43:55.066Z,99649.69
2023-01-08T10:46:24.601Z,99655.69
2023-01-08T10:48:55.370Z,99651.72
2023-01-08T10:51:24.694Z,99655.31
2023-01-08T10:53:52.752Z,99658.09
2023-01-08T10:56:20.929Z,99656.63
2023-01-08T10:58:48.157Z,99655.09
2023-01-08T11:01:20.293Z,99662.03
2023-01-08T11:03:53.275Z,99657.03
2023-01-08T11:06:27.479Z,99652.81
2023-01-08T11:08:58.988Z,99657.91
2023-01-08T11:11:33.228Z,99645.22
2023-01-08T11:14:03.885Z,99646.06
2023-01-08T11:16:33.660Z,99651.91
2023-01-08T11:19:00.237Z,99664.53
2023-01-08T11:21:31.779Z,99648.34
2023-01-08T11:24:18.561Z,99649.06
2023-01-08T11:26:50.934Z,99648.19
2023-01-08T11:29:54.995Z,99641.34
2023-01-08T11:33:03.532Z,99638.66
2023-01-08T11:35:35.960Z,99635.09
2023-01-08T11:38:03.688Z,99629.25
2023-01-08T11:41:06.302Z,99625.88
2023-01-08T11:43:46.442Z,99617.56
2023-01-08T11:46:50.564Z,99611.69
2023-01-08T11:49:44.159Z,99610.06
2023-01-08T11:52:35.078Z,99609.31
2023-01-08T11:55:24.137Z,99596.78
2023-01-08T11:58:23.175Z,99599.34
2023-01-08T12:00:57.474Z,99599.41
2023-01-08T12:03:43.276Z,99594.34
2023-01-08T12:06:43.373Z,99595.25
2023-01-08T12:09:38.616Z,99602.97
2023-01-08T12:12:40.722Z,99598.81
2023-01-08T12:15:20.686Z,99595.53
2023-01-08T12:18:13.513Z,99584.63
2023-01-08T12:21:09.829Z,99579.75
2023-01-08T12:23:59.125Z,99578.34
2023-01-08T12:27:02.092Z,99570.03
2023-01-08T12:30:01.627Z,99573.63
2023-01-08T12:32:43.852Z,99577.03
2023-01-08T12:35:19.101Z,99566.97
2023-01-08T12:37:56.055Z,99566.09
2023-01-08T12:40:40.887Z,99562.75
2023-01-08T12:43:19.158Z,99562.75
2023-01-08T12:45:49.943Z,99556.72
2023-01-08T12:48:23.394Z,99560.16
2023-01-08T12:51:04.628Z,99553.28
2023-01-08T12:53:57.776Z,99545.53
2023-01-08T12:56:35.627Z,99542.81
2023-01-08T12:59:18.194Z,99541.81
2023-01-08T13:01:58.085Z,99545.88
2023-01-08T13:04:24.718Z,99537.25
2023-01-08T13:07:01.233Z,99528.75
2023-01-08T13:09:29.130Z,99537.09
2023-01-08T13:11:58.247Z,99532.03
2023-01-08T13:14:27.423Z,99536.19
2023-01-08T13:17:06.606Z,99536.19
2023-01-08T13:19:42.350Z,99526.00
2023-01-08T13:22:29.865Z,99533.38
2023-01-08T13:25:15.258Z,99524.81
2023-01-08T13:27:42.478Z,99524.63
2023-01-08T13:30:38.633Z,99519.63
2023-01-08T13:33:40.058Z,99507.53
2023-01-08T13:36:15.435Z,99514.22
2023-01-08T13:38:43.376Z,99514.06
2023-01-08T13:41:33.968Z,99508.91
2023-01-08T13:44:15.461Z,99504.53
2023-01-08T13:46:44.109Z,99511.91
2023-01-08T13:49:24.026Z,99509.22
2023-01-08T13:51:50.853Z,99496.28
2023-01-08T13:54:21.523Z,99503.06
2023-01-08T13:56:54.374Z,99489.28
2023-01-08T13:59:46.478Z,99494.16
2023-01-08T14:02:32.472Z,99499.94
2023-01-08T14:05:01.915Z,99491.38
2023-01-08T14:07:28.781Z,99492.06
2023-01-08T14:10:07.893Z,99484.28
2023-01-08T14:12:35.155Z,99487.66
2023-01-08T14:15:04.198Z,99486.59
2023-01-08T14:17:32.292Z,99491.44
2023-01-08T14:19:59.577Z,99489.69
2023-01-08T14:22:31.237Z,99487.81
2023-01-08T14:25:04.620Z,99487.69
2023-01-08T14:27:32.541Z,99490.84
2023-01-08T14:29:59.494Z,99494.00
2023-01-08T14:32:30.932Z,99481.06
2023-01-08T14:35:00.873Z,99495.41
2023-01-08T14:37:27.459Z,99496.09
2023-01-08T14:39:55.225Z,99490.88
2023-01-08T14:42:42.330Z,99484.03
2023-01-08T14:45:29.457Z,99478.78
2023-01-08T14:48:07.982Z,99473.50
2023-01-08T14:50:39.384Z,99468.16
2023-01-08T14:53:24.383Z,99468.91
2023-01-08T14:55:52.708Z,99472.03
2023-01-08T14:58:23.296Z,99471.00
2023-01-08T15:00:57.910Z,99472.34
2023-01-08T15:03:41.201Z,99473.91
2023-01-08T15:06:11.274Z,99476.25
2023-01-08T15:08:46.843Z,99471.75
2023-01-08T15:11:19.228Z,99464.00
2023-01-08T15:13:47.771Z,99455.16
2023-01-08T15:16:35.083Z,99462.66
2023-01-08T15:19:29.270Z,99460.69
2023-01-08T15:21:59.138Z,99463.88
2023-01-08T15:24:39.256Z,99459.38
2023-01-08T15:27:12.044Z,99454.00
2023-01-08T15:29:51.703Z,99456.28
2023-01-08T15:32:23.050Z,99457.66
2023-01-08T15:34:49.952Z,99457.38
2023-01-08T15:37:16.634Z,99447.78
2023-01-08T15:39:43.371Z,99444.34
2023-01-08T15:42:50.763Z,99449.84
2023-01-08T15:45:20.400Z,99446.22
2023-01-08T15:47:47.239Z,99445.97
2023-01-08T15:50:14.694Z,99443.16
2023-01-08T15:52:43.366Z,99440.44
2023-01-08T15:55:18.882Z,99449.50
2023-01-08T15:57:45.608Z,99446.06
2023-01-08T16:00:14.787Z,99439.00
2023-01-08T16:02:46.301Z,99445.78
2023-01-08T16:05:14.086Z,99449.75
2023-01-08T16:07:40.817Z,99457.16
2023-01-08T16:10:08.990Z,99448.47
2023-01-08T16:12:36.252Z,99441.56
2023-01-08T16:15:03.836Z,99443.22
2023-01-08T16:17:30.565Z,99443.16
2023-01-08T16:19:57.277Z,99436.19
2023-01-08T16:22:23.965Z,99427.63
2023-01-08T16:24:50.614Z,99425.75
2023-01-08T16:27:17.338Z,99415.53
2023-01-08T16:29:44.088Z,99411.22
2023-01-08T16:32:10.789Z,99411.16
2023-01-08T16:34:37.689Z,99409.44
2023-01-08T16:37:04.518Z,99405.25
2023-01-08T16:39:32.253Z,99405.25
2023-01-08T16:41:58.974Z,99397.72
2023-01-08T16:44:31.147Z,99401.09
2023-01-08T16:46:58.712Z,99393.63
2023-01-08T16:49:25.364Z,99395.31
2023-01-08T16:51:53.265Z,99381.75
2023-01-08T16:54:20.531Z,99398.84
2023-01-08T16:56:47.369Z,99396.41
2023-01-08T16:59:22.714Z,99383.03
2023-01-08T17:01:49.916Z,99387.34
2023-01-08T17:04:16.808Z,99377.13
2023-01-08T17:06:43.572Z,99388.25
2023-01-08T17:09:11.662Z,99385.66
2023-01-08T17:11:38.830Z,99427.06
2023-01-08T17:14:05.563Z,99447.13
2023-01-08T17:16:32.128Z,99440.78
2023-01-08T17:18:58.964Z,99437.88
2023-01-08T17:21:25.493Z,99431.81
2023-01-08T17:23:52.044Z,99424.66
2023-01-08T17:26:18.631Z,99416.56
2023-01-08T17:28:46.442Z,99405.88
2023-01-08T17:31:20.667Z,99400.25
2023-01-08T17:33:50.175Z,99394.56
2023-01-08T17:36:26.740Z,99395.41
2023-01-08T17:38:54.292Z,99399.72
2023-01-08T17:41:40.600Z,99398.84
2023-01-08T17:44:09.306Z,99393.81
2023-01-08T17:46:37.952Z,99395.50
2023-01-08T17:49:04.545Z,99388.69
2023-01-08T17:51:32.377Z,99388.66
2023-01-08T17:53:59.668Z,99383.63
2023-01-08T17:56:26.736Z,99393.69
2023-01-08T17:58:53.306Z,99395.28
2023-01-08T18:01:20.227Z,99383.34
2023-01-08T18:03:47.006Z,99388.38
2023-01-08T18:06:14.280Z,99389.13
2023-01-08T18:08:41.466Z,99388.03
2023-01-08T18:11:09.821Z,99391.28
2023-01-08T18:13:37.421Z,99387.72
2023-01-08T18:16:06.427Z,99387.53
2023-01-08T18:18:33.682Z,99387.25
2023-01-08T18:21:00.281Z,99379.59
2023-01-08T18:23:26.928Z,99381.88
2023-01-08T18:25:53.434Z,99386.03
2023-01-08T18:28:20.069Z,99388.34
2023-01-08T18:30:46.622Z,99380.66
2023-01-08T18:33:14.458Z,99391.41
2023-01-08T18:35:41.703Z,99396.31
2023-01-08T18:38:15.701Z,99385.94
2023-01-08T18:40:43.423Z,99390.78
2023-01-08T18:43:11.132Z,99390.56
2023-01-08T18:45:38.761Z,99382.81
2023-01-08T18:48:08.210Z,99390.94
2023-01-08T18:50:38.885Z,99395.06
2023-01-08T18:53:05.877Z,99391.44
2023-01-08T18:55:32.388Z,99386.13
2023-01-08T18:57:58.881Z,99386.00
2023-01-08T19:00:26.339Z,99395.06
2023-01-08T19:02:53.612Z,99400.75
2023-01-08T19:05:20.240Z,99394.63
2023-01-08T19:07:47.003Z,99376.53
2023-01-08T19:10:14.158Z,99384.06
2023-01-08T19:12:40.880Z,99384.63
2023-01-08T19:15:07.876Z,99381.81
2023-01-08T19:17:36.469Z,99380.00
2023-01-08T19:20:04.282Z,99375.56
2023-01-08T19:22:32.490Z,99372.84
2023-01-08T19:25:01.208Z,99375.03
2023-01-08T19:27:28.074Z,99369.56
2023-01-08T19:29:54.761Z,99367.84
2023-01-08T19:32:21.614Z,99365.94
2023-01-08T19:34:48.342Z,99361.63
2023-01-08T19:37:15.015Z,99363.22
2023-01-08T19:39:41.782Z,99357.28
2023-01-08T19:42:29.633Z,99359.78
2023-01-08T19:44:57.214Z,99361.41
2023-01-08T19:47:24.410Z,99364.88
2023-01-08T19:49:51.182Z,99361.63
2023-01-08T19:52:19.397Z,99361.81
2023-01-08T19:54:46.504Z,99357.72
2023-01-08T19:57:13.573Z,99338.28
2023-01-08T19:59:40.296Z,99338.38
2023-01-08T20:02:09.634Z,99337.53
2023-01-08T20:04:44.401Z,99327.38
2023-01-08T20:07:13.303Z,99338.97
2023-01-08T20:09:41.626Z,99337.84
2023-01-08T20:12:11.061Z,99333.53
2023-01-08T20:14:37.938Z,99330.81
2023-01-08T20:17:04.697Z,99330.72
2023-01-08T20:19:31.420Z,99334.75
2023-01-08T20:21:58.879Z,99322.06
2023-01-08T20:24:25.585Z,99316.84
2023-01-08T20:26:55.385Z,99324.25
2023-01-08T20:29:22.509Z,99318.19
2023-01-08T20:31:50.317Z,99310.44
2023-01-08T20:34:17.085Z,99311.06
2023-01-08T20:36:45.180Z,99315.88
2023-01-08T20:39:14.992Z,99314.94
2023-01-08T20:41:49.824Z,99311.47
2023-01-08T20:44:27.989Z,99308.09
2023-01-08T20:46:55.380Z,99308.19
2023-01-08T20:49:22.201Z,99304.03
2023-01-08T20:51:57.859Z,99305.81
2023-01-08T20:54:26.151Z,99309.34
2023-01-08T20:56:56.063Z,99306.97
2023-01-08T20:59:26.758Z,99295.38
2023-01-08T21:01:53.890Z,99298.00
2023-01-08T21:04:20.753Z,99301.41
2023-01-08T21:06:47.617Z,99285.63
2023-01-08T21:09:16.461Z,99284.06
2023-01-08T21:11:43.539Z,99290.97
2023-01-08T21:14:10.922Z,99291.00
2023-01-08T21:16:39.465Z,99274.06
2023-01-08T21:19:06.358Z,99280.25
2023-01-08T21:21:35.445Z,99263.59
2023-01-08T21:24:04.410Z,99262.81
2023-01-08T21:26:33.738Z,99259.59
2023-01-08T21:29:05.946Z,99257.91
2023-01-08T21:31:33.362Z,99257.06
2023-01-08T21:34:01.587Z,99253.84
2023-01-08T21:36:30.155Z,99252.91
2023-01-08T21:38:58.604Z,99246.22
2023-01-08T21:41:45.843Z,99244.50
2023-01-08T21:44:35.451Z,99242.94
2023-01-08T21:47:04.381Z,99238.75
2023-01-08T21:49:31.808Z,99227.03
2023-01-08T21:52:17.127Z,99230.44
2023-01-08T21:54:43.847Z,99222.81
2023-01-08T21:57:10.971Z,99215.41
2023-01-08T21:59:37.838Z,99207.81
2023-01-08T22:02:05.741Z,99211.19
2023-01-08T22:04:32.671Z,99196.88
2023-01-08T22:06:59.518Z,99193.44
2023-01-08T22:09:26.331Z,99194.31
2023-01-08T22:11:54.849Z,99197.59
2023-01-08T22:14:21.832Z,99192.50
2023-01-08T22:16:48.590Z,99189.84
2023-01-08T22:19:15.296Z,99184.75
2023-01-08T22:21:41.998Z,99177.94
2023-01-08T22:24:08.958Z,99183.75
2023-01-08T22:26:35.686Z,99179.44
2023-01-08T22:29:03.505Z,99176.00
2023-01-08T22:31:30.324Z,99175.84
2023-01-08T22:33:57.903Z,99168.16
2023-01-08T22:36:25.193Z,99161.34
2023-01-08T22:38:51.877Z,99152.66
2023-01-08T22:41:21.381Z,99165.22
2023-01-08T22:43:48.196Z,99165.94
2023-01-08T22:46:16.429Z,99169.19
2023-01-08T22:48:43.893Z,99153.09
2023-01-08T22:51:11.285Z,99150.50
2023-01-08T22:53:38.523Z,99151.38
2023-01-08T22:56:11.994Z,99168.88
2023-01-08T22:58:40.393Z,99158.69
2023-01-08T23:01:16.284Z,99155.47
2023-01-08T23:03:46.533Z,99148.66
2023-01-08T23:06:14.924Z,99149.56
2023-01-08T23:08:43.410Z,99145.34
2023-01-08T23:11:12.447Z,99145.34
2023-01-08T23:13:40.265Z,99135.38
2023-01-08T23:16:09.047Z,99122.81
2023-01-08T23:18:36.961Z,99126.97
2023-01-08T23:21:05.460Z,99125.16
2023-01-08T23:23:32.297Z,99128.47
2023-01-08T23:26:04.535Z,99124.19
2023-01-08T23:28:31.466Z,99115.72
2023-01-08T23:30:58.431Z,99116.47
2023-01-08T23:33:25.431Z,99108.91
2023-01-08T23:35:52.425Z,99103.16
2023-01-08T23:38:19.165Z,99109.75
2023-01-08T23:40:46.084Z,99108.00
2023-01-08T23:43:12.958Z,99096.25
2023-01-08T23:45:39.749Z,99102.06
2023-01-08T23:48:07.559Z,99099.41
2023-01-08T23:50:34.754Z,99095.97
2023-01-08T23:53:01.454Z,99088.28
2023-01-08T23:55:28.180Z,99081.53
2023-01-08T23:57:56.461Z,99088.13
